Copper City, Michigan
Current Conditions -  °F | °C
As of 6:53 AM on Saturday 22 Nov 2014 (Local Time) from KCMX Reporting Station
Few Clouds Few Clouds  
Wind Chill: 25°   Ceiling: Unl
Heat Index: 33°   Visibility: 10mi
Dew Point: 25°   Wind: 9mph
Humidity: 72%   Direction: 240°WSW
Pressure: 29.67"   Gusts: NA
Location:  47.28°N, 88.39°W
Report Text: KCMX 221153Z AUTO 24008KT 10SM FEW120 01/M04 A2967 RMK AO2 SLP063 T00061039 10006 21006 56005
Loading
Personal Weather Stations






























Interactive Weather Map New forecast layout! Learn more

10-Day Weather Forecast

Advertisements
Track Severe Weather on mobile